Flight Track Log - Related Links

Times and Time Zones

All times are in EDT time to prevent confusion due to time zone crossing. See the AWI3875 flight status page for this flight to view local times or setup timezone preferences in your user account.


Time Position Orientation Groundspeed Altitude Reporting Facility
EDT Latitude Longitude Course Direction KTS MPH feet Rate Location/Type
Sat 08:54:18 PM 38.7800 -77.0056 159° South 163 188 2,800  Level Washington Center
Sat 08:55:18 PM 38.7347 -76.9489 136° Southeast 193 222 4,600 1,785 Climbing Washington Center
Sat 08:56:00 PM 38.5692 -76.7390 138° Southeast  Level FlightAware Approximate
Sat 08:56:19 PM 38.6772 -76.8761 135° Southeast 243 280 6,400  Level Washington Center
Sat 08:57:00 PM 38.4846 -76.7121 174° South  Level FlightAware Approximate
Sat 08:57:19 PM 38.6156 -76.8006 136° Southeast 295 339 8,000  Level Washington Center
Sat 08:58:00 PM 38.3940 -76.6970 159° South  Level FlightAware Approximate
Sat 08:58:19 PM 38.5578 -76.7306 137° Southeast 295 339 8,000  Level Washington Center
Sat 08:59:20 PM 38.4831 -76.7031 164° South 282 325 9,400 1,311 Climbing Washington Center
Sat 09:00:18 PM 38.4061 -76.6700 161° South 282 325 10,600 1,400 Climbing Washington Center
Sat 09:01:20 PM 38.3208 -76.6344 162° South 306 352 12,200 1,574 Climbing Washington Center
Sat 09:02:20 PM 38.2378 -76.5936 159° South 326 375 13,800 864 Climbing Washington Center
Sat 09:03:18 PM 38.1483 -76.5556 161° South 345 397 13,900 50 Climbing Washington Center
Sat 09:04:19 PM 38.0592 -76.5175 161° South 345 397 13,900 -400 Level Washington Center
Sat 09:05:18 PM 37.9697 -76.4819 163° South 345 397 13,100 -992 Descending Washington Center
Sat 09:06:20 PM 37.8636 -76.4439 164° South 345 397 11,900 -1,109 Descending Washington Center
Sat 09:06:50 PM 37.8200 -76.4250 161° South 346 398 11,400 -1,000 Descending Washington Center
Sat 09:07:20 PM 37.7783 -76.4011 156° South 345 397 10,900 -1,000 Descending Washington Center
Sat 09:07:50 PM 37.7325 -76.3875 167° South 340 391 10,400 -915 Descending Washington Center
Sat 09:08:19 PM 37.6889 -76.3633 156° South 345 397 10,000 -429 Descending Washington Center
Sat 09:08:46 PM 37.6536 -76.3525 166° South 326 375 10,000  Level Washington Center
Sat 09:09:18 PM 37.6036 -76.3336 163° South 340 391 10,000  Level Washington Center
Sat 09:09:48 PM 37.5661 -76.3253 170° South 319 367 10,000  Level Washington Center
Sat 09:10:18 PM 37.5183 -76.3067 163° South 329 379 10,000  Level Washington Center
Sat 09:10:43 PM 37.4911 -76.3039 175° South 306 352 10,000 -197 Level Washington Center
Sat 09:11:19 PM 37.4411 -76.2825 161° South 314 361 9,800 -800 Descending Washington Center
Sat 09:11:43 PM 37.4142 -76.2769 171° South 263 303 9,200 -1,700 Descending Washington Center
Sat 09:12:19 PM 37.3725 -76.2583 160° South 281 323 8,100 -1,875 Descending Washington Center
Sat 09:12:47 PM 37.3392 -76.2500 169° South 247 284 7,200 -1,770 Descending Washington Center
Sat 09:13:20 PM 37.3081 -76.2367 161° South 259 298 6,300 -1,770 Descending Washington Center
Sat 09:13:48 PM 37.2725 -76.2286 170° South 246 283 5,400 -1,932 Descending Washington Center
Sat 09:14:19 PM 37.2414 -76.2153 161° South 253 291 4,400 -2,032 Descending Washington Center
Sat 09:14:50 PM 37.2081 -76.2072 169° South 243 280 3,300 -1,377 Descending Washington Center
Sat 09:15:20 PM 37.1789 -76.1914 157° South 243 280 3,000 -984 Descending Washington Center
Sat 09:15:51 PM 37.1497 -76.1808 164° South 218 251 2,300 -944 Descending Washington Center
Sat 09:16:49 PM 37.0894 -76.1492 157° South 226 260 1,600 -400 Descending Washington Center
Sat 09:17:51 PM 37.0311 -76.1278 164° South 218 251 1,500 -47 Descending Washington Center
Sat 09:18:57 PM 36.9769 -76.1275 180° South 152 175 1,500 -148 Level Washington Center
Sat 09:19:53 PM 36.9497 -76.1481 211° Southwest 127 146 1,200 -513 Descending Washington Center
Sat 09:20:54 PM 36.9203 -76.1764 218° Southwest 131 151 500 -689 Descending Washington Center

Login

Don't have an account? Register now (free) for customized features, flight alerts, and more!